Time;durP1;ratioP1;P1;durP2;ratioP2;P2;SDS_P1;SDS_P2;PMS_P1;PMS_P2;Temp;Humidity;BMP_temperature;BMP_pressure;BME280_temperature;BME280_humidity;BME280_pressure;Samples;Min_cycle;Max_cycle;Signal;HPM_P1;HPM_P2
2022/08/18 00:02:14;;;;;;;6.67;5.93;;;27.50;55.30;;;;;;4948334;28;20459;-45
2022/08/18 00:04:40;;;;;;;7.23;6.63;;;27.50;54.70;;;;;;4945385;28;20566;-48
2022/08/18 00:07:09;;;;;;;12.30;7.10;;;27.10;56.90;;;;;;4947828;28;20471;-47
2022/08/18 00:09:36;;;;;;;7.43;6.83;;;26.90;57.60;;;;;;4944621;28;20495;-47
2022/08/18 00:12:06;;;;;;;7.33;6.73;;;26.70;58.10;;;;;;4948227;28;20443;-45
2022/08/18 00:14:32;;;;;;;8.03;7.23;;;26.20;59.10;;;;;;4948984;28;20470;-46
2022/08/18 00:16:58;;;;;;;7.77;7.17;;;26.20;59.50;;;;;;4942404;28;20487;-46
2022/08/18 00:19:24;;;;;;;8.20;7.40;;;26.30;59.60;;;;;;4946906;28;20816;-47
2022/08/18 00:21:50;;;;;;;8.20;7.60;;;26.40;59.40;;;;;;4948105;28;20196;-46
2022/08/18 00:24:16;;;;;;;8.77;7.87;;;26.50;59.50;;;;;;4941455;28;20435;-46
2022/08/18 00:26:42;;;;;;;8.53;6.23;;;26.60;59.20;;;;;;4948847;29;20809;-46
2022/08/18 00:29:08;;;;;;;7.43;6.73;;;26.50;58.80;;;;;;4947983;28;20227;-45
2022/08/18 00:31:33;;;;;;;8.13;7.47;;;26.60;58.20;;;;;;4943756;28;20219;-46
2022/08/18 00:33:59;;;;;;;6.17;5.63;;;26.70;58.00;;;;;;4947840;28;20192;-46
2022/08/18 00:36:26;;;;;;;5.80;5.27;;;26.80;58.00;;;;;;4943281;28;20237;-46
2022/08/18 00:38:52;;;;;;;6.70;6.10;;;26.80;55.70;;;;;;4947574;28;20230;-46
2022/08/18 00:41:19;;;;;;;7.13;5.80;;;26.90;55.60;;;;;;4949932;28;20475;-45
2022/08/18 00:43:48;;;;;;;6.20;5.67;;;27.10;55.40;;;;;;4949805;28;20251;-47
2022/08/18 00:46:21;;;;;;;5.77;5.27;;;27.20;55.10;;;;;;4942076;28;20447;-46
2022/08/18 00:48:48;;;;;;;6.60;6.00;;;27.30;55.10;;;;;;4947011;28;20478;-45
2022/08/18 00:51:42;;;;;;;6.43;5.93;;;27.40;54.90;;;;;;4943274;28;20462;-46
2022/08/18 00:54:15;;;;;;;7.23;6.60;;;27.50;54.70;;;;;;4940504;28;20456;-45
2022/08/18 00:56:45;;;;;;;5.87;5.37;;;27.60;54.70;;;;;;4947006;28;20582;-46
2022/08/18 00:59:22;;;;;;;7.80;7.20;;;27.60;54.90;;;;;;4947748;28;20436;-45
2022/08/18 01:01:54;;;;;;;7.40;6.70;;;27.70;54.90;;;;;;4948506;28;20451;-46
2022/08/18 01:04:26;;;;;;;6.83;6.20;;;27.70;54.80;;;;;;4944458;28;20498;-49
2022/08/18 01:07:00;;;;;;;6.20;5.60;;;27.70;54.80;;;;;;4947090;28;20931;-46
2022/08/18 01:09:27;;;;;;;6.90;6.40;;;27.80;54.70;;;;;;4947670;28;20542;-46
2022/08/18 01:11:52;;;;;;;6.67;5.97;;;27.80;54.80;;;;;;4951116;28;20907;-47
2022/08/18 01:14:19;;;;;;;6.43;5.93;;;27.70;55.70;;;;;;4945378;28;20569;-46
2022/08/18 01:22:25;;;;;;;7.53;6.00;;;27.60;55.60;;;;;;4949015;28;21231;-45
2022/08/18 01:27:40;;;;;;;6.53;6.03;;;27.50;55.60;;;;;;4949983;28;20490;-47
2022/08/18 01:30:09;;;;;;;7.40;5.90;;;27.60;55.40;;;;;;4948543;28;20455;-47
2022/08/18 01:32:37;;;;;;;6.77;6.13;;;27.50;55.30;;;;;;4950830;28;21021;-46
2022/08/18 01:35:07;;;;;;;7.67;6.87;;;27.70;55.20;;;;;;4946477;28;20487;-47
2022/08/18 01:37:33;;;;;;;6.60;6.10;;;27.70;55.70;;;;;;4949810;28;20526;-47
2022/08/18 01:39:59;;;;;;;8.80;8.00;;;27.70;55.60;;;;;;4945373;28;20455;-45
2022/08/18 01:42:24;;;;;;;8.67;7.77;;;27.70;55.80;;;;;;4952229;29;20325;-49
2022/08/18 01:44:50;;;;;;;7.50;6.90;;;27.70;55.90;;;;;;4946458;28;20247;-49
2022/08/18 01:47:17;;;;;;;6.90;6.30;;;27.60;56.10;;;;;;4951498;28;20196;-46
2022/08/18 01:49:43;;;;;;;6.20;5.80;;;27.60;56.20;;;;;;4949152;28;20228;-45
2022/08/18 01:52:12;;;;;;;9.20;6.00;;;27.50;55.70;;;;;;4950987;28;20445;-47
2022/08/18 01:54:39;;;;;;;6.10;5.70;;;27.40;55.60;;;;;;4947629;28;20460;-46
2022/08/18 01:57:05;;;;;;;6.63;6.00;;;27.30;55.80;;;;;;4950334;28;20570;-46
2022/08/18 01:59:31;;;;;;;6.60;6.10;;;27.40;55.70;;;;;;4945365;28;20538;-46
2022/08/18 02:01:58;;;;;;;6.77;6.17;;;27.60;55.40;;;;;;4949032;28;20236;-45
2022/08/18 02:04:27;;;;;;;5.97;5.57;;;27.50;55.20;;;;;;4942305;28;20206;-45
2022/08/18 02:06:54;;;;;;;6.90;6.33;;;27.50;55.40;;;;;;4945196;28;20454;-46
2022/08/18 02:09:21;;;;;;;6.13;5.63;;;27.50;55.50;;;;;;4950559;28;21565;-48
2022/08/18 02:11:46;;;;;;;6.97;5.60;;;27.50;55.20;;;;;;4949843;28;20514;-45
2022/08/18 02:14:12;;;;;;;6.13;5.63;;;27.60;55.40;;;;;;4948492;28;20471;-47
2022/08/18 02:16:38;;;;;;;6.57;6.00;;;27.50;55.30;;;;;;4943256;28;20282;-46
2022/08/18 02:19:03;;;;;;;6.47;5.93;;;27.40;55.70;;;;;;4950635;28;20200;-45
2022/08/18 02:21:29;;;;;;;6.00;5.40;;;27.40;55.80;;;;;;4944090;28;20251;-47
2022/08/18 02:23:55;;;;;;;5.63;5.23;;;27.50;55.80;;;;;;4950240;28;20200;-45
2022/08/18 02:26:22;;;;;;;6.97;6.47;;;27.60;55.30;;;;;;4950305;28;20238;-46
2022/08/18 02:28:47;;;;;;;7.40;6.73;;;27.70;55.40;;;;;;4949816;28;20670;-46
2022/08/18 02:31:18;;;;;;;7.00;6.40;;;27.70;55.10;;;;;;4952030;28;20526;-45
2022/08/18 02:33:45;;;;;;;8.07;7.27;;;27.80;55.00;;;;;;4944013;28;20287;-46
2022/08/18 02:36:11;;;;;;;6.57;5.70;;;27.80;55.20;;;;;;4948192;28;20495;-45
2022/08/18 02:38:36;;;;;;;6.60;6.00;;;27.60;55.30;;;;;;4946816;28;20478;-45
2022/08/18 02:41:08;;;;;;;6.57;5.97;;;27.60;55.40;;;;;;4947097;28;20456;-45
2022/08/18 02:43:34;;;;;;;6.80;6.30;;;27.50;55.90;;;;;;4949036;28;20212;-46
2022/08/18 02:46:01;;;;;;;7.50;6.90;;;27.50;55.80;;;;;;4944628;28;21030;-45
2022/08/18 02:48:35;;;;;;;7.00;6.30;;;27.60;55.50;;;;;;4944555;29;20455;-45
2022/08/18 02:51:15;;;;;;;7.17;6.67;;;27.60;55.40;;;;;;4943878;28;20491;-45
2022/08/18 02:53:44;;;;;;;7.20;6.50;;;27.60;55.50;;;;;;4949458;28;20455;-48
2022/08/18 02:56:23;;;;;;;7.73;7.03;;;27.70;55.30;;;;;;4949290;28;20491;-44
2022/08/18 02:58:53;;;;;;;6.17;5.67;;;27.70;55.10;;;;;;4949252;28;20821;-45
2022/08/18 03:01:21;;;;;;;6.63;5.50;;;27.70;54.90;;;;;;4948028;28;20451;-47
2022/08/18 03:03:48;;;;;;;7.00;6.40;;;27.70;54.80;;;;;;4943311;28;20808;-46
2022/08/18 03:06:15;;;;;;;5.67;5.27;;;27.70;54.80;;;;;;4950307;28;20845;-45
2022/08/18 03:08:42;;;;;;;6.43;5.93;;;27.70;54.80;;;;;;4945812;28;20451;-45
2022/08/18 03:11:08;;;;;;;5.93;5.33;;;27.60;55.00;;;;;;4943517;28;20513;-44
2022/08/18 03:13:34;;;;;;;5.87;5.37;;;27.60;55.00;;;;;;4943824;28;20827;-46
2022/08/18 03:15:59;;;;;;;6.20;5.80;;;27.50;55.00;;;;;;4948737;28;20492;-49
2022/08/18 03:18:25;;;;;;;6.20;5.70;;;27.40;55.20;;;;;;4947841;28;20212;-47
2022/08/18 03:20:51;;;;;;;6.47;5.97;;;27.50;55.00;;;;;;4946117;28;20199;-45
2022/08/18 03:23:17;;;;;;;5.97;5.47;;;27.60;54.90;;;;;;4950169;28;20207;-44
2022/08/18 03:25:48;;;;;;;6.00;5.50;;;27.70;54.50;;;;;;4948910;28;20196;-45
2022/08/18 03:28:15;;;;;;;6.73;5.70;;;27.60;54.50;;;;;;4950519;28;20478;-45
2022/08/18 03:30:42;;;;;;;5.80;5.40;;;27.70;54.30;;;;;;4946457;28;20808;-44
2022/08/18 03:33:09;;;;;;;5.83;5.37;;;27.70;54.40;;;;;;4945761;28;20460;-48
2022/08/18 03:35:37;;;;;;;5.80;5.40;;;27.60;54.70;;;;;;4947246;28;20487;-48
2022/08/18 03:38:04;;;;;;;5.40;5.00;;;27.20;55.50;;;;;;4950000;28;20499;-45
2022/08/18 03:40:29;;;;;;;5.83;5.33;;;27.00;55.90;;;;;;4946403;28;20448;-46
2022/08/18 03:42:55;;;;;;;5.20;4.80;;;27.00;56.20;;;;;;4949684;28;20442;-45
2022/08/18 03:45:23;;;;;;;6.67;6.17;;;27.00;56.10;;;;;;4945078;28;20200;-45
2022/08/18 03:47:51;;;;;;;7.03;6.40;;;27.30;55.60;;;;;;4945082;28;20215;-50
2022/08/18 03:50:18;;;;;;;7.10;6.40;;;27.50;55.30;;;;;;4945338;28;20453;-45
2022/08/18 03:52:47;;;;;;;7.10;5.97;;;27.60;55.30;;;;;;4943290;28;20458;-44
2022/08/18 03:55:14;;;;;;;7.67;7.07;;;27.60;55.50;;;;;;4942786;28;20900;-45
2022/08/18 03:57:41;;;;;;;7.30;6.80;;;27.60;55.60;;;;;;4944106;28;20829;-45
2022/08/18 04:00:08;;;;;;;7.07;6.47;;;27.60;55.70;;;;;;4946639;28;20444;-49
2022/08/18 04:02:34;;;;;;;6.60;6.20;;;27.50;55.80;;;;;;4945846;28;20459;-49
2022/08/18 04:04:59;;;;;;;7.10;6.50;;;27.50;55.80;;;;;;4945203;28;20439;-48
2022/08/18 04:07:25;;;;;;;5.77;5.30;;;27.50;55.60;;;;;;4947294;29;20199;-48
2022/08/18 04:09:51;;;;;;;8.70;7.10;;;27.50;55.50;;;;;;4945709;28;20282;-45
2022/08/18 04:12:16;;;;;;;7.00;6.40;;;27.50;55.50;;;;;;4947601;28;20231;-45
2022/08/18 04:14:46;;;;;;;6.87;6.33;;;27.40;55.50;;;;;;4947014;28;20188;-44
2022/08/18 04:17:12;;;;;;;7.53;6.97;;;27.30;55.40;;;;;;4951255;28;20231;-48
2022/08/18 04:19:37;;;;;;;6.70;6.20;;;27.20;55.50;;;;;;4947817;28;20455;-49
2022/08/18 04:22:04;;;;;;;7.13;6.53;;;27.10;55.70;;;;;;4945702;28;20200;-49
2022/08/18 04:24:30;;;;;;;7.80;7.20;;;27.00;56.20;;;;;;4942699;28;20218;-46
2022/08/18 04:26:58;;;;;;;7.57;6.77;;;26.90;56.80;;;;;;4947561;28;20446;-47
2022/08/18 04:29:24;;;;;;;8.13;7.37;;;26.80;57.30;;;;;;4944631;28;20451;-45
2022/08/18 04:31:50;;;;;;;8.07;7.20;;;26.70;57.30;;;;;;4946095;28;20486;-46
2022/08/18 04:34:19;;;;;;;6.93;6.33;;;26.80;57.30;;;;;;4945316;28;20196;-48
2022/08/18 04:36:45;;;;;;;7.47;6.97;;;26.80;57.00;;;;;;4944734;28;20491;-45
2022/08/18 04:39:12;;;;;;;8.37;6.70;;;26.90;56.50;;;;;;4946688;28;20542;-49
2022/08/18 04:41:40;;;;;;;7.10;6.50;;;27.00;56.40;;;;;;4946800;28;20447;-45
2022/08/18 04:44:08;;;;;;;6.37;5.80;;;27.10;56.30;;;;;;4947806;28;20452;-45
2022/08/18 04:46:45;;;;;;;7.50;6.90;;;27.10;56.10;;;;;;4946335;28;20842;-45
2022/08/18 04:49:11;;;;;;;8.07;7.47;;;27.10;56.10;;;;;;4939349;28;20826;-47
2022/08/18 04:51:40;;;;;;;6.83;6.23;;;27.20;56.10;;;;;;4947627;28;20443;-45
2022/08/18 04:54:06;;;;;;;5.83;5.43;;;27.20;55.80;;;;;;4945638;28;20490;-46
2022/08/18 04:56:35;;;;;;;7.87;7.27;;;27.20;55.60;;;;;;4947118;28;20534;-45
2022/08/18 04:59:10;;;;;;;7.40;6.80;;;27.20;55.60;;;;;;4951575;28;20967;-45
2022/08/18 05:01:46;;;;;;;6.60;6.10;;;27.30;55.50;;;;;;4951061;28;20551;-46
2022/08/18 05:04:14;;;;;;;6.07;5.57;;;27.30;55.30;;;;;;4948068;28;20450;-44
2022/08/18 05:06:42;;;;;;;6.00;5.33;;;27.40;55.70;;;;;;4953744;28;20502;-45
2022/08/18 05:09:09;;;;;;;6.50;6.10;;;27.40;55.20;;;;;;4951713;28;20436;-45
2022/08/18 05:11:36;;;;;;;8.00;5.97;;;27.40;55.30;;;;;;4952287;28;20447;-46
2022/08/18 05:14:04;;;;;;;7.03;6.33;;;27.40;55.10;;;;;;4949409;28;20485;-44
2022/08/18 05:16:35;;;;;;;7.50;6.90;;;27.50;55.10;;;;;;4947314;28;20544;-45
2022/08/18 05:19:03;;;;;;;7.87;7.27;;;27.50;55.20;;;;;;4948507;28;20443;-44
2022/08/18 05:21:29;;;;;;;7.67;7.00;;;27.40;55.20;;;;;;4948930;28;20887;-44
2022/08/18 05:23:55;;;;;;;8.17;7.57;;;27.50;55.40;;;;;;4951028;28;20510;-45
2022/08/18 05:26:21;;;;;;;8.10;7.40;;;27.40;55.80;;;;;;4947312;28;20447;-48
2022/08/18 05:28:47;;;;;;;8.00;7.40;;;27.40;55.80;;;;;;4949255;28;20196;-44
2022/08/18 05:31:15;;;;;;;8.40;7.70;;;27.40;55.80;;;;;;4946107;28;20223;-44
2022/08/18 05:33:42;;;;;;;5.80;5.30;;;27.40;55.80;;;;;;4954343;28;20813;-47
2022/08/18 05:36:10;;;;;;;6.83;6.33;;;27.40;55.90;;;;;;4949373;28;20836;-43
2022/08/18 05:39:01;;;;;;;6.23;5.73;;;27.40;55.60;;;;;;4945557;28;20443;-44
2022/08/18 05:41:32;;;;;;;6.60;5.93;;;27.50;55.40;;;;;;4950899;28;20456;-45
2022/08/18 05:43:59;;;;;;;6.90;6.33;;;27.60;55.20;;;;;;4950586;28;20494;-48
2022/08/18 05:46:53;;;;;;;7.50;6.90;;;27.70;55.10;;;;;;4951156;28;20964;-44
2022/08/18 05:49:20;;;;;;;6.93;6.33;;;27.70;55.20;;;;;;4952643;28;20462;-44
2022/08/18 05:51:49;;;;;;;6.13;5.63;;;27.40;55.50;;;;;;4953512;28;20451;-43
2022/08/18 05:57:08;;;;;;;9.07;8.20;;;27.50;55.20;;;;;;4949577;28;20598;-44
2022/08/18 05:59:37;;;;;;;7.17;6.47;;;27.60;55.20;;;;;;4948948;28;20451;-43
2022/08/18 06:02:32;;;;;;;7.90;7.30;;;27.60;55.10;;;;;;4951883;28;20448;-44
2022/08/18 06:05:19;;;;;;;7.47;6.77;;;27.60;55.00;;;;;;4949842;28;20955;-44
2022/08/18 06:07:57;;;;;;;6.70;6.20;;;27.60;55.10;;;;;;4952844;28;20443;-45
2022/08/18 06:10:24;;;;;;;6.93;6.43;;;27.70;55.10;;;;;;4951549;28;20469;-44
2022/08/18 06:12:53;;;;;;;7.57;6.87;;;27.70;54.90;;;;;;4950484;28;20502;-44
2022/08/18 06:15:46;;;;;;;8.03;7.43;;;27.70;54.90;;;;;;4950864;28;20497;-44
2022/08/18 06:18:40;;;;;;;6.57;6.00;;;27.80;55.00;;;;;;4950340;28;20455;-43
2022/08/18 06:21:43;;;;;;;9.23;8.40;;;27.70;55.10;;;;;;4951234;28;20515;-43
2022/08/18 06:24:30;;;;;;;8.90;8.10;;;27.70;55.40;;;;;;4949302;28;20450;-44
2022/08/18 06:27:04;;;;;;;8.90;8.10;;;27.50;56.30;;;;;;4949698;28;20447;-43
2022/08/18 06:29:30;;;;;;;10.10;9.30;;;27.30;56.70;;;;;;4943916;28;20458;-43
2022/08/18 06:32:06;;;;;;;8.17;7.23;;;27.40;56.70;;;;;;4952684;28;20435;-45
2022/08/18 06:35:17;;;;;;;8.00;7.30;;;27.50;56.40;;;;;;4949229;28;20247;-44
2022/08/18 06:40:41;;;;;;;8.90;8.10;;;27.70;55.80;;;;;;4950815;28;20502;-44
2022/08/18 06:43:14;;;;;;;8.20;7.50;;;27.70;55.40;;;;;;4951589;28;20535;-45
2022/08/18 06:45:43;;;;;;;8.27;7.45;;;27.80;55.00;;;;;;4933101;28;20807;-44
2022/08/18 06:48:18;;;;;;;9.17;8.47;;;27.90;55.30;;;;;;4949063;28;20200;-45
2022/08/18 06:50:57;;;;;;;8.20;7.60;;;27.80;55.70;;;;;;4944787;28;20506;-44
2022/08/18 06:53:50;;;;;;;9.87;9.07;;;27.80;56.00;;;;;;4951651;28;20447;-47
2022/08/18 06:56:20;;;;;;;8.57;7.83;;;27.80;56.20;;;;;;4948239;28;20499;-45
2022/08/18 06:58:46;;;;;;;8.70;8.00;;;27.70;56.10;;;;;;4949960;28;20478;-48
2022/08/18 07:01:11;;;;;;;8.23;7.63;;;27.70;56.50;;;;;;4947117;28;20475;-46
2022/08/18 07:03:49;;;;;;;9.73;8.93;;;27.60;56.40;;;;;;4936521;28;20196;-45
2022/08/18 07:06:21;;;;;;;9.60;8.80;;;27.60;56.40;;;;;;4945407;28;20252;-44
2022/08/18 07:08:49;;;;;;;9.60;8.87;;;27.60;56.50;;;;;;4946314;28;20462;-48
2022/08/18 07:11:25;;;;;;;9.40;8.70;;;27.60;56.40;;;;;;4947559;28;20482;-44
2022/08/18 07:13:56;;;;;;;9.13;8.43;;;27.60;56.20;;;;;;4947824;28;20490;-45
2022/08/18 07:16:28;;;;;;;9.57;8.80;;;27.60;56.40;;;;;;4951183;28;20491;-44
2022/08/18 07:19:15;;;;;;;10.40;9.50;;;27.60;56.50;;;;;;4948586;28;20451;-44
2022/08/18 07:21:42;;;;;;;9.80;8.90;;;27.60;56.40;;;;;;4950530;28;20531;-44
2022/08/18 07:24:11;;;;;;;10.03;8.40;;;27.60;56.10;;;;;;4947851;28;20447;-45
2022/08/18 07:26:57;;;;;;;8.87;8.07;;;27.60;56.20;;;;;;4949539;28;20502;-45
2022/08/18 07:29:23;;;;;;;9.17;8.37;;;27.60;56.60;;;;;;4950472;28;20451;-44
2022/08/18 07:31:52;;;;;;;9.80;9.00;;;27.60;56.50;;;;;;4950438;28;20791;-44
2022/08/18 07:34:35;;;;;;;10.13;9.23;;;27.60;56.40;;;;;;4948735;28;20199;-45
2022/08/18 07:37:07;;;;;;;9.43;8.60;;;27.60;56.10;;;;;;4952060;29;20541;-44
2022/08/18 07:39:43;;;;;;;9.73;8.93;;;27.60;55.90;;;;;;4950714;28;20586;-44
2022/08/18 07:42:18;;;;;;;8.47;7.77;;;27.60;56.00;;;;;;4952259;29;20539;-44
2022/08/18 07:44:54;;;;;;;8.40;7.70;;;27.60;55.50;;;;;;4945545;28;20459;-44
2022/08/18 07:47:47;;;;;;;9.93;8.93;;;27.50;54.90;;;;;;4947055;28;20455;-44
2022/08/18 07:50:12;;;;;;;8.60;7.90;;;27.50;55.00;;;;;;4946713;28;20463;-43
2022/08/18 07:52:44;;;;;;;9.13;8.00;;;27.50;55.10;;;;;;4950409;28;20927;-43
2022/08/18 07:55:29;;;;;;;9.47;8.67;;;27.40;55.30;;;;;;4951197;28;20459;-43
2022/08/18 07:58:14;;;;;;;8.20;7.50;;;27.40;55.40;;;;;;4947326;28;20595;-43
2022/08/18 08:00:51;;;;;;;7.20;6.60;;;27.40;55.80;;;;;;4943957;28;20486;-43
2022/08/18 08:03:31;;;;;;;7.60;7.00;;;27.40;55.60;;;;;;4943949;28;20991;-43
2022/08/18 08:06:22;;;;;;;8.67;7.20;;;27.50;55.50;;;;;;4945760;28;20509;-44
2022/08/18 08:08:57;;;;;;;6.77;6.27;;;27.60;55.30;;;;;;4948111;28;20951;-43
2022/08/18 08:11:27;;;;;;;7.00;6.30;;;27.60;55.00;;;;;;4947284;28;20459;-46
2022/08/18 08:14:08;;;;;;;9.07;6.80;;;27.70;54.80;;;;;;4945772;28;20821;-45
2022/08/18 08:16:46;;;;;;;6.30;5.73;;;27.70;54.60;;;;;;4941925;28;20491;-46
2022/08/18 08:19:33;;;;;;;6.20;5.43;;;27.80;54.50;;;;;;4947893;28;20455;-47
2022/08/18 08:22:04;;;;;;;6.00;5.60;;;27.90;54.30;;;;;;4947701;28;20455;-46
2022/08/18 08:24:58;;;;;;;7.03;6.40;;;27.80;54.30;;;;;;4949010;28;20447;-46
2022/08/18 08:27:56;;;;;;;6.50;6.00;;;27.90;54.20;;;;;;4947909;28;20880;-45
2022/08/18 08:30:25;;;;;;;6.67;6.07;;;27.90;54.40;;;;;;4911339;28;20468;-49
2022/08/18 08:32:56;;;;;;;6.53;6.03;;;28.00;54.10;;;;;;4949258;28;20538;-46
2022/08/18 08:35:44;;;;;;;10.23;6.20;;;28.10;54.10;;;;;;4950037;28;20537;-45
2022/08/18 08:38:44;;;;;;;5.60;5.20;;;28.10;54.00;;;;;;4950851;28;20493;-44
2022/08/18 08:41:27;;;;;;;6.20;5.70;;;28.20;54.10;;;;;;4938649;28;20555;-45
2022/08/18 08:44:13;;;;;;;5.75;5.25;;;28.10;54.20;;;;;;4949066;28;20432;-44
2022/08/18 08:47:04;;;;;;;8.40;6.00;;;28.10;54.00;;;;;;4940920;28;22043;-44
2022/08/18 08:49:51;;;;;;;6.13;5.63;;;28.20;54.50;;;;;;4944488;28;21151;-43
2022/08/18 08:52:57;;;;;;;6.47;5.97;;;28.20;54.50;;;;;;4945043;28;20939;-43
2022/08/18 08:55:25;;;;;;;8.77;5.77;;;28.40;54.60;;;;;;4948480;28;20486;-44
2022/08/18 08:58:09;;;;;;;8.53;7.93;;;28.40;54.30;;;;;;4951105;28;20531;-46
2022/08/18 09:00:37;;;;;;;7.43;6.10;;;28.50;53.60;;;;;;4948184;28;20498;-44
2022/08/18 09:03:26;;;;;;;7.63;7.03;;;28.60;53.50;;;;;;4946396;28;20498;-47
2022/08/18 09:05:55;;;;;;;7.00;6.40;;;28.60;53.30;;;;;;4953455;28;20451;-45
2022/08/18 09:08:43;;;;;;;7.17;6.57;;;28.70;53.20;;;;;;4948239;28;20450;-44
2022/08/18 09:11:21;;;;;;;7.10;6.60;;;28.80;52.80;;;;;;4948182;28;20456;-44
2022/08/18 09:14:20;;;;;;;14.37;6.60;;;28.70;52.80;;;;;;4949078;28;20515;-46
2022/08/18 09:17:13;;;;;;;8.67;6.20;;;28.80;52.50;;;;;;4943102;28;20486;-43
2022/08/18 09:19:46;;;;;;;9.33;6.50;;;28.80;52.20;;;;;;4949204;28;20583;-44
2022/08/18 09:22:39;;;;;;;10.77;6.40;;;28.90;51.90;;;;;;4951600;28;20444;-44
2022/08/18 09:25:28;;;;;;;6.73;6.13;;;29.00;51.80;;;;;;4950841;28;20806;-45
2022/08/18 09:28:10;;;;;;;6.87;6.17;;;29.00;51.60;;;;;;4944952;28;20986;-43
2022/08/18 09:30:46;;;;;;;7.70;7.10;;;29.10;51.70;;;;;;4949897;28;21017;-45
2022/08/18 09:33:33;;;;;;;6.57;6.07;;;29.30;51.70;;;;;;4945729;28;20480;-44
2022/08/18 09:36:19;;;;;;;7.63;6.77;;;29.30;51.10;;;;;;4951080;28;20526;-45
2022/08/18 09:41:58;;;;;;;7.87;7.27;;;29.30;51.40;;;;;;4952966;28;20618;-44
2022/08/18 09:44:46;;;;;;;8.80;7.90;;;29.20;50.90;;;;;;4949257;28;20836;-45
2022/08/18 09:47:32;;;;;;;7.67;6.97;;;29.20;51.20;;;;;;4950835;28;20471;-44
2022/08/18 09:50:26;;;;;;;8.60;7.80;;;29.50;51.10;;;;;;4918967;28;20462;-47
2022/08/18 09:52:52;;;;;;;8.50;7.90;;;29.60;50.90;;;;;;4923144;28;20474;-49
2022/08/18 09:55:17;;;;;;;10.00;9.20;;;29.70;50.40;;;;;;4952764;28;20447;-45
2022/08/18 09:57:45;;;;;;;9.30;8.50;;;29.80;49.60;;;;;;4950514;28;20451;-49
2022/08/18 10:00:11;;;;;;;9.43;8.40;;;29.80;49.60;;;;;;4950160;28;20210;-49
2022/08/18 10:02:38;;;;;;;12.13;11.03;;;29.90;50.10;;;;;;4951667;28;20452;-49
2022/08/18 10:05:16;;;;;;;20.17;12.20;;;30.00;50.30;;;;;;4950358;28;20451;-49
2022/08/18 10:07:42;;;;;;;13.73;12.27;;;30.10;49.90;;;;;;4948815;28;20447;-49
2022/08/18 10:10:41;;;;;;;9.37;8.57;;;30.30;49.10;;;;;;4949846;28;20448;-49
2022/08/18 10:13:46;;;;;;;11.10;10.00;;;30.40;48.90;;;;;;4951386;28;20522;-49
2022/08/18 10:16:18;;;;;;;9.73;8.93;;;30.60;48.50;;;;;;4948567;28;20513;-48
2022/08/18 10:18:49;;;;;;;9.47;8.60;;;30.80;48.20;;;;;;4944153;28;20447;-49
2022/08/18 10:21:17;;;;;;;9.13;8.23;;;31.10;47.40;;;;;;4951144;28;20546;-47
2022/08/18 10:23:51;;;;;;;8.80;7.50;;;31.10;47.00;;;;;;4946038;28;20447;-49
2022/08/18 10:26:48;;;;;;;8.50;7.90;;;31.20;46.70;;;;;;4952456;28;20538;-48
2022/08/18 10:29:24;;;;;;;13.20;9.40;;;31.40;46.20;;;;;;4950269;28;20497;-46
2022/08/18 10:31:56;;;;;;;8.87;8.00;;;31.40;46.40;;;;;;4939233;28;20980;-47
2022/08/18 10:34:41;;;;;;;8.93;8.02;;;31.50;46.40;;;;;;4944072;28;20451;-46
2022/08/18 10:37:36;;;;;;;10.10;9.10;;;31.70;45.70;;;;;;4946129;28;20251;-46
2022/08/18 10:40:04;;;;;;;8.80;8.07;;;31.80;45.60;;;;;;4947426;28;20455;-48
2022/08/18 10:42:54;;;;;;;9.77;8.70;;;31.90;45.60;;;;;;4950561;28;20463;-49
2022/08/18 10:45:31;;;;;;;9.60;8.50;;;32.00;45.60;;;;;;4948997;28;20471;-49
2022/08/18 10:48:20;;;;;;;8.50;7.80;;;32.20;45.00;;;;;;4946583;28;20489;-46
2022/08/18 10:50:57;;;;;;;8.70;8.10;;;32.30;44.50;;;;;;4952629;28;20462;-47
2022/08/18 10:53:48;;;;;;;8.50;7.80;;;32.30;44.60;;;;;;4951501;28;20459;-48
2022/08/18 10:56:16;;;;;;;11.60;8.37;;;32.40;44.10;;;;;;4948715;28;20494;-45
2022/08/18 10:58:56;;;;;;;9.33;8.60;;;32.40;44.00;;;;;;4949326;28;20475;-50
2022/08/18 11:01:40;;;;;;;7.70;7.03;;;32.60;44.10;;;;;;4948678;28;20609;-49
2022/08/18 11:04:07;;;;;;;12.03;8.63;;;32.70;43.50;;;;;;4949247;28;20822;-45
2022/08/18 11:06:49;;;;;;;14.97;9.97;;;32.80;43.30;;;;;;4952712;29;20460;-45
2022/08/18 11:09:25;;;;;;;9.80;8.97;;;33.00;42.90;;;;;;4950064;28;20490;-45
2022/08/18 11:11:53;;;;;;;8.63;7.83;;;33.10;42.60;;;;;;4951520;28;20813;-47
2022/08/18 11:14:40;;;;;;;9.33;8.53;;;33.10;42.30;;;;;;4950240;28;20586;-46
2022/08/18 11:17:21;;;;;;;8.30;7.67;;;33.20;43.00;;;;;;4951104;28;20519;-47
2022/08/18 11:19:49;;;;;;;8.37;7.73;;;33.20;42.80;;;;;;4949689;28;20439;-45
2022/08/18 11:22:32;;;;;;;11.87;8.67;;;33.40;41.90;;;;;;4951338;28;20487;-47
2022/08/18 11:24:58;;;;;;;10.20;9.30;;;33.50;41.70;;;;;;4943884;28;20539;-45
2022/08/18 11:27:30;;;;;;;9.63;8.93;;;33.50;41.10;;;;;;4951211;28;20447;-46
2022/08/18 11:30:00;;;;;;;8.37;7.67;;;33.50;41.50;;;;;;4951173;28;20454;-46
2022/08/18 11:32:35;;;;;;;9.03;8.17;;;33.50;41.40;;;;;;4947761;28;20450;-47
2022/08/18 11:35:13;;;;;;;9.67;8.90;;;33.60;40.90;;;;;;4948080;28;20862;-49
2022/08/18 11:37:38;;;;;;;10.57;9.77;;;33.50;41.30;;;;;;4951933;28;20489;-49
2022/08/18 11:40:32;;;;;;;10.70;9.90;;;33.40;41.10;;;;;;4951207;28;20467;-46
2022/08/18 11:43:01;;;;;;;10.80;8.23;;;33.50;41.00;;;;;;4944049;28;20727;-48
2022/08/18 11:45:34;;;;;;;9.10;8.40;;;33.40;41.40;;;;;;4949356;28;20543;-45
2022/08/18 11:48:24;;;;;;;8.90;8.20;;;33.40;41.30;;;;;;4949526;28;20455;-45
2022/08/18 11:51:02;;;;;;;8.80;8.10;;;33.50;40.60;;;;;;4947661;28;20456;-50
2022/08/18 11:53:48;;;;;;;8.40;7.80;;;33.40;41.00;;;;;;4950680;28;20884;-45
2022/08/18 11:56:16;;;;;;;8.30;7.60;;;33.40;40.90;;;;;;4949668;28;20495;-45
2022/08/18 11:58:45;;;;;;;8.77;7.97;;;33.60;41.10;;;;;;4946862;28;20464;-47
2022/08/18 12:01:32;;;;;;;8.10;7.50;;;33.70;41.00;;;;;;4936932;28;20459;-46
2022/08/18 12:04:13;;;;;;;8.87;8.03;;;33.80;40.60;;;;;;4944825;28;20469;-46
2022/08/18 12:06:53;;;;;;;7.83;7.23;;;33.80;40.00;;;;;;4946781;28;20560;-48
2022/08/18 12:09:39;;;;;;;8.20;7.60;;;33.90;39.80;;;;;;4945003;28;20455;-47
2022/08/18 12:12:14;;;;;;;9.13;8.23;;;33.90;40.10;;;;;;4948701;28;20455;-46
2022/08/18 12:15:01;;;;;;;8.93;8.13;;;34.00;39.40;;;;;;4950933;28;20470;-47
2022/08/18 12:17:28;;;;;;;9.23;8.53;;;34.00;39.30;;;;;;4950615;28;20498;-47
2022/08/18 12:19:56;;;;;;;8.80;8.20;;;33.90;39.40;;;;;;4947333;28;20443;-47
2022/08/18 12:22:25;;;;;;;9.60;8.90;;;33.90;39.60;;;;;;4948890;28;20966;-51
2022/08/18 12:24:51;;;;;;;8.67;8.07;;;33.90;39.10;;;;;;4944710;28;20447;-48
2022/08/18 12:27:22;;;;;;;8.70;7.90;;;34.00;39.50;;;;;;4938429;28;20748;-46
2022/08/18 12:29:49;;;;;;;9.70;8.90;;;33.80;39.90;;;;;;4949348;28;20883;-50
2022/08/18 12:32:15;;;;;;;8.40;7.80;;;33.70;39.40;;;;;;4941330;28;20535;-48
2022/08/18 12:34:40;;;;;;;9.40;8.60;;;33.80;39.70;;;;;;4949892;28;20522;-48
2022/08/18 12:37:09;;;;;;;7.73;7.23;;;33.90;39.80;;;;;;4945437;28;21806;-47
2022/08/18 12:39:35;;;;;;;9.37;8.67;;;33.90;39.70;;;;;;4949270;28;20274;-46
2022/08/18 12:42:01;;;;;;;8.43;7.80;;;34.10;39.40;;;;;;4950749;28;20444;-46
2022/08/18 12:44:27;;;;;;;10.50;9.50;;;34.10;39.30;;;;;;4928584;29;20553;-47
2022/08/18 12:46:54;;;;;;;9.30;8.50;;;34.20;38.80;;;;;;4945516;28;20671;-46
2022/08/18 12:49:23;;;;;;;10.37;8.03;;;34.10;39.00;;;;;;4948062;28;20452;-49
2022/08/18 12:51:50;;;;;;;13.70;9.33;;;34.00;39.40;;;;;;4948240;28;20475;-48
2022/08/18 12:54:17;;;;;;;9.70;8.80;;;34.20;39.40;;;;;;4950844;28;20479;-47
2022/08/18 12:56:45;;;;;;;8.90;8.10;;;34.20;38.90;;;;;;4947488;28;20527;-50
2022/08/18 12:59:11;;;;;;;9.30;8.50;;;34.40;39.10;;;;;;4945990;28;20551;-46
2022/08/18 13:01:38;;;;;;;8.87;8.10;;;34.40;38.60;;;;;;4948475;28;20947;-51
2022/08/18 13:04:04;;;;;;;9.03;8.27;;;34.30;38.60;;;;;;4948315;28;20198;-48
2022/08/18 13:06:33;;;;;;;9.43;8.63;;;34.50;38.30;;;;;;4950117;28;20476;-48
2022/08/18 13:08:59;;;;;;;9.40;8.67;;;34.50;38.30;;;;;;4950647;29;20892;-48
2022/08/18 13:11:24;;;;;;;19.07;8.97;;;34.40;37.40;;;;;;4948384;28;20518;-48
2022/08/18 13:13:52;;;;;;;8.70;8.00;;;34.40;38.00;;;;;;4947713;28;20232;-49
2022/08/18 13:16:17;;;;;;;8.70;8.00;;;34.40;37.80;;;;;;4950933;28;20271;-51
2022/08/18 13:18:44;;;;;;;8.97;8.03;;;34.40;37.40;;;;;;4948466;28;20878;-49
2022/08/18 13:21:11;;;;;;;12.43;7.93;;;34.50;37.50;;;;;;4950810;28;20208;-49
2022/08/18 13:23:38;;;;;;;8.70;7.90;;;34.60;37.10;;;;;;4947445;28;20483;-48
2022/08/18 13:26:06;;;;;;;7.37;6.80;;;34.60;37.40;;;;;;4951599;28;20486;-51
2022/08/18 13:28:33;;;;;;;8.47;7.60;;;34.60;36.90;;;;;;4946697;28;20451;-46
2022/08/18 13:30:58;;;;;;;7.60;6.70;;;34.70;36.30;;;;;;4946847;28;21329;-46
2022/08/18 13:33:24;;;;;;;7.87;7.20;;;34.70;36.30;;;;;;4952430;28;20452;-46